createdAt,value
2022-12-11T00:00:03.046Z,-0.87
2022-12-11T00:01:03.037Z,-0.86
2022-12-11T00:02:03.041Z,-0.87
2022-12-11T00:03:03.092Z,-0.86
2022-12-11T00:04:02.979Z,-0.86
2022-12-11T00:05:02.986Z,-0.84
2022-12-11T00:06:02.989Z,-0.81
2022-12-11T00:07:02.961Z,-0.83
2022-12-11T00:08:02.958Z,-0.83
2022-12-11T00:09:02.941Z,-0.84
2022-12-11T00:10:02.900Z,-0.83
2022-12-11T00:11:02.971Z,-0.81
2022-12-11T00:12:02.914Z,-0.80
2022-12-11T00:13:02.986Z,-0.78
2022-12-11T00:14:02.865Z,-0.77
2022-12-11T00:15:02.897Z,-0.73
2022-12-11T00:16:02.862Z,-0.70
2022-12-11T00:17:02.926Z,-0.69
2022-12-11T00:18:02.830Z,-0.72
2022-12-11T00:19:02.862Z,-0.70
2022-12-11T00:20:02.833Z,-0.70
2022-12-11T00:21:02.828Z,-0.69
2022-12-11T00:22:02.813Z,-0.69
2022-12-11T00:23:02.836Z,-0.69
2022-12-11T00:24:02.779Z,-0.69
2022-12-11T00:25:02.784Z,-0.69
2022-12-11T00:26:02.763Z,-0.68
2022-12-11T00:27:02.758Z,-0.69
2022-12-11T00:28:02.710Z,-0.69
2022-12-11T00:29:02.751Z,-0.72
2022-12-11T00:30:02.774Z,-0.69
2022-12-11T00:31:02.769Z,-0.69
2022-12-11T00:32:02.775Z,-0.72
2022-12-11T00:33:02.707Z,-0.73
2022-12-11T00:34:02.664Z,-0.72
2022-12-11T00:35:02.707Z,-0.70
2022-12-11T00:36:02.635Z,-0.70
2022-12-11T00:37:02.694Z,-0.69
2022-12-11T00:38:02.623Z,-0.66
2022-12-11T00:39:02.644Z,-0.63
2022-12-11T00:40:02.589Z,-0.59
2022-12-11T00:41:02.612Z,-0.62
2022-12-11T00:42:02.574Z,-0.62
2022-12-11T00:43:02.616Z,-0.66
2022-12-11T00:44:02.549Z,-0.69
2022-12-11T00:45:02.563Z,-0.72
2022-12-11T00:46:03.323Z,-0.75
2022-12-11T00:47:02.547Z,-0.78
2022-12-11T00:48:02.522Z,-0.77
2022-12-11T00:49:02.534Z,-0.78
2022-12-11T00:50:02.488Z,-0.77
2022-12-11T00:51:02.498Z,-0.73
2022-12-11T00:52:02.467Z,-0.72
2022-12-11T00:53:02.500Z,-0.70
2022-12-11T00:54:02.466Z,-0.70
2022-12-11T00:55:02.464Z,-0.69
2022-12-11T00:56:02.429Z,-0.69
2022-12-11T00:57:02.437Z,-0.68
2022-12-11T00:58:02.404Z,-0.63
2022-12-11T00:59:02.442Z,-0.60
2022-12-11T01:00:02.367Z,-0.59
2022-12-11T01:01:02.416Z,-0.57
2022-12-11T01:02:02.362Z,-0.57
2022-12-11T01:03:02.485Z,-0.54
2022-12-11T01:04:02.347Z,-0.54
2022-12-11T01:05:02.356Z,-0.55
2022-12-11T01:06:02.445Z,-0.60
2022-12-11T01:07:03.283Z,-0.60
2022-12-11T01:08:02.627Z,-0.65
2022-12-11T01:09:02.310Z,-0.63
2022-12-11T01:10:03.546Z,-0.62
2022-12-11T01:11:02.291Z,-0.59
2022-12-11T01:12:02.245Z,-0.60
2022-12-11T01:13:03.718Z,-0.57
2022-12-11T01:14:02.231Z,-0.59
2022-12-11T01:15:02.268Z,-0.59
2022-12-11T01:16:02.222Z,-0.54
2022-12-11T01:17:02.310Z,-0.55
2022-12-11T01:18:02.217Z,-0.54
2022-12-11T01:19:02.209Z,-0.54
2022-12-11T01:20:02.188Z,-0.51
2022-12-11T01:21:02.180Z,-0.51
2022-12-11T01:22:02.175Z,-0.48
2022-12-11T01:23:03.403Z,-0.47
2022-12-11T01:24:02.122Z,-0.47
2022-12-11T01:25:03.444Z,-0.48
2022-12-11T01:26:02.952Z,-0.50
2022-12-11T01:27:03.519Z,-0.52
2022-12-11T01:28:02.625Z,-0.51
2022-12-11T01:29:02.104Z,-0.51
2022-12-11T01:30:02.901Z,-0.50
2022-12-11T01:31:02.154Z,-0.50
2022-12-11T01:32:02.045Z,-0.47
2022-12-11T01:33:02.064Z,-0.45
2022-12-11T01:34:02.024Z,-0.47
2022-12-11T01:35:02.758Z,-0.45
2022-12-11T01:36:02.004Z,-0.45
2022-12-11T01:37:02.025Z,-0.45
2022-12-11T01:38:02.003Z,-0.45
2022-12-11T01:39:02.022Z,-0.45
2022-12-11T01:40:01.962Z,-0.44
2022-12-11T01:41:07.639Z,-0.44
2022-12-11T01:42:01.939Z,-0.47
2022-12-11T01:43:01.969Z,-0.47
2022-12-11T01:44:01.910Z,-0.47
2022-12-11T01:45:01.927Z,-0.47
2022-12-11T01:46:01.933Z,-0.48
2022-12-11T01:47:01.930Z,-0.45
2022-12-11T01:48:01.878Z,-0.44
2022-12-11T01:49:01.911Z,-0.44
2022-12-11T01:50:01.854Z,-0.39
2022-12-11T01:51:01.904Z,-0.37
2022-12-11T01:52:01.827Z,-0.34
2022-12-11T01:53:01.846Z,-0.33
2022-12-11T01:54:01.834Z,-0.30
2022-12-11T01:55:01.852Z,-0.30
2022-12-11T01:56:01.798Z,-0.26
2022-12-11T01:57:01.822Z,-0.24
2022-12-11T01:58:01.760Z,-0.22
2022-12-11T01:59:01.781Z,-0.19
2022-12-11T02:00:01.768Z,-0.19
2022-12-11T02:01:01.823Z,-0.22
2022-12-11T02:02:03.241Z,-0.23
2022-12-11T02:03:01.772Z,-0.24
2022-12-11T02:04:01.708Z,-0.24
2022-12-11T02:05:01.740Z,-0.23
2022-12-11T02:06:01.705Z,-0.22
2022-12-11T02:07:01.722Z,-0.23
2022-12-11T02:08:01.788Z,-0.19
2022-12-11T02:09:01.680Z,-0.18
2022-12-11T02:10:01.667Z,-0.19
2022-12-11T02:11:01.686Z,-0.18
2022-12-11T02:12:01.611Z,-0.16
2022-12-11T02:13:01.654Z,-0.16
2022-12-11T02:14:01.615Z,-0.15
2022-12-11T02:15:01.698Z,-0.16
2022-12-11T02:16:01.601Z,-0.15
2022-12-11T02:17:01.601Z,-0.16
2022-12-11T02:18:01.549Z,-0.16
2022-12-11T02:19:01.573Z,-0.16
2022-12-11T02:20:01.557Z,-0.15
2022-12-11T02:21:01.552Z,-0.15
2022-12-11T02:22:01.504Z,-0.16
2022-12-11T02:23:01.529Z,-0.13
2022-12-11T02:24:01.503Z,-0.16
2022-12-11T02:25:01.515Z,-0.16
2022-12-11T02:26:01.469Z,-0.15
2022-12-11T02:27:01.496Z,-0.13
2022-12-11T02:28:01.456Z,-0.15
2022-12-11T02:29:01.493Z,-0.15
2022-12-11T02:30:01.446Z,-0.11
2022-12-11T02:31:01.515Z,-0.12
2022-12-11T02:32:01.408Z,-0.11
2022-12-11T02:33:01.446Z,-0.13
2022-12-11T02:34:01.382Z,-0.13
2022-12-11T02:35:01.418Z,-0.13
2022-12-11T02:36:01.424Z,-0.13
2022-12-11T02:37:01.383Z,-0.13
2022-12-11T02:38:01.352Z,-0.12
2022-12-11T02:39:01.359Z,-0.11
2022-12-11T02:40:01.327Z,-0.09
2022-12-11T02:41:01.358Z,-0.08
2022-12-11T02:42:01.340Z,-0.05
2022-12-11T02:43:01.319Z,-0.06
2022-12-11T02:44:01.278Z,-0.04
2022-12-11T02:45:01.305Z,-0.04
2022-12-11T02:46:01.325Z,-0.05
2022-12-11T02:47:01.283Z,-0.04
2022-12-11T02:48:01.238Z,-0.04
2022-12-11T02:49:01.279Z,-0.04
2022-12-11T02:50:01.222Z,-0.04
2022-12-11T02:51:01.250Z,-0.04
2022-12-11T02:52:01.200Z,-0.05
2022-12-11T02:53:01.208Z,-0.05
2022-12-11T02:54:01.195Z,-0.06
2022-12-11T02:55:01.198Z,-0.05
2022-12-11T02:56:01.200Z,-0.09
2022-12-11T02:57:01.183Z,-0.08
2022-12-11T02:58:02.125Z,-0.09
2022-12-11T02:59:01.446Z,-0.09
2022-12-11T03:00:01.146Z,-0.12
2022-12-11T03:01:01.213Z,-0.11
2022-12-11T03:02:01.227Z,-0.09
2022-12-11T03:03:01.103Z,-0.06
2022-12-11T03:04:01.079Z,-0.06
2022-12-11T03:05:01.106Z,-0.05
2022-12-11T03:06:01.053Z,-0.05
2022-12-11T03:07:01.076Z,-0.04
2022-12-11T03:08:01.090Z,-0.05
2022-12-11T03:09:01.060Z,-0.01
2022-12-11T03:10:01.028Z,0.00
2022-12-11T03:11:01.021Z,0.02
2022-12-11T03:12:01.008Z,0.02
2022-12-11T03:13:01.032Z,0.03
2022-12-11T03:14:00.998Z,0.02
2022-12-11T03:15:00.980Z,0.03
2022-12-11T03:16:00.978Z,0.05
2022-12-11T03:17:00.969Z,0.05
2022-12-11T03:18:00.935Z,0.06
2022-12-11T03:19:00.936Z,0.05
2022-12-11T03:20:00.922Z,0.05
2022-12-11T03:21:00.935Z,0.02
2022-12-11T03:22:00.901Z,0.03
2022-12-11T03:23:00.888Z,0.03
2022-12-11T03:24:00.877Z,0.05
2022-12-11T03:25:00.869Z,0.06
2022-12-11T03:26:00.837Z,0.06
2022-12-11T03:27:01.387Z,0.09
2022-12-11T03:28:00.823Z,0.07
2022-12-11T03:29:00.837Z,0.09
2022-12-11T03:30:00.804Z,0.09
2022-12-11T03:31:00.861Z,0.09
2022-12-11T03:32:00.785Z,0.12
2022-12-11T03:33:00.795Z,0.12
2022-12-11T03:34:00.753Z,0.15
2022-12-11T03:35:00.779Z,0.15
2022-12-11T03:36:00.747Z,0.16
2022-12-11T03:37:00.750Z,0.16
2022-12-11T03:38:00.734Z,0.16
2022-12-11T03:39:00.753Z,0.20
2022-12-11T03:40:00.691Z,0.18
2022-12-11T03:41:00.712Z,0.16
2022-12-11T03:42:00.669Z,0.18
2022-12-11T03:43:00.690Z,0.20
2022-12-11T03:44:00.674Z,0.21
2022-12-11T03:45:00.676Z,0.21
2022-12-11T03:46:00.692Z,0.20
2022-12-11T03:47:00.640Z,0.20
2022-12-11T03:48:00.603Z,0.18
2022-12-11T03:49:00.643Z,0.16
2022-12-11T03:50:00.613Z,0.12
2022-12-11T03:51:00.589Z,0.10
2022-12-11T03:52:00.594Z,0.10
2022-12-11T03:53:00.597Z,0.12
2022-12-11T03:54:00.570Z,0.12
2022-12-11T03:55:00.575Z,0.12
2022-12-11T03:56:00.570Z,0.13
2022-12-11T03:57:00.507Z,0.15
2022-12-11T03:58:00.533Z,0.15
2022-12-11T03:59:00.504Z,0.16
2022-12-11T04:00:00.504Z,0.18
2022-12-11T04:01:00.466Z,0.18
2022-12-11T04:02:00.552Z,0.20
2022-12-11T04:03:00.445Z,0.18
2022-12-11T04:04:00.531Z,0.18
2022-12-11T04:05:00.438Z,0.20
2022-12-11T04:06:00.457Z,0.21
2022-12-11T04:07:00.404Z,0.21
2022-12-11T04:08:00.415Z,0.23
2022-12-11T04:09:00.377Z,0.23
2022-12-11T04:10:00.407Z,0.23
2022-12-11T04:11:00.376Z,0.24
2022-12-11T04:12:00.382Z,0.23
2022-12-11T04:13:00.346Z,0.23
2022-12-11T04:14:00.356Z,0.21
2022-12-11T04:15:00.319Z,0.21
2022-12-11T04:16:00.403Z,0.20
2022-12-11T04:17:00.312Z,0.18
2022-12-11T04:18:00.320Z,0.15
2022-12-11T04:19:00.321Z,0.15
2022-12-11T04:20:00.347Z,0.15
2022-12-11T04:21:00.249Z,0.18
2022-12-11T04:22:00.279Z,0.18
2022-12-11T04:23:00.231Z,0.16
2022-12-11T04:24:00.277Z,0.16
2022-12-11T04:25:00.207Z,0.20
2022-12-11T04:26:00.230Z,0.20
2022-12-11T04:27:00.188Z,0.16
2022-12-11T04:28:00.221Z,0.16
2022-12-11T04:29:00.194Z,0.16
2022-12-11T04:30:00.181Z,0.18
2022-12-11T04:31:00.178Z,0.18
2022-12-11T04:32:00.188Z,0.18
2022-12-11T04:33:00.146Z,0.20
2022-12-11T04:34:00.139Z,0.21
2022-12-11T04:35:00.123Z,0.20
2022-12-11T04:36:00.157Z,0.20
2022-12-11T04:37:00.089Z,0.21
2022-12-11T04:38:00.092Z,0.20
2022-12-11T04:39:00.070Z,0.20
2022-12-11T04:40:00.079Z,0.21
2022-12-11T04:41:00.051Z,0.21
2022-12-11T04:42:00.073Z,0.23
2022-12-11T04:43:00.025Z,0.23
2022-12-11T04:44:00.041Z,0.24
2022-12-11T04:45:00.018Z,0.24
2022-12-11T04:46:00.080Z,0.23
2022-12-11T04:47:00.005Z,0.24
2022-12-11T04:48:00.005Z,0.24
2022-12-11T04:48:59.963Z,0.24
2022-12-11T04:49:59.966Z,0.25
2022-12-11T04:50:59.936Z,0.24
2022-12-11T04:51:59.967Z,0.25
2022-12-11T04:52:59.934Z,0.24
2022-12-11T04:53:59.946Z,0.28
2022-12-11T04:54:59.894Z,0.27
2022-12-11T04:55:59.946Z,0.28
2022-12-11T04:56:59.870Z,0.27
2022-12-11T04:57:59.910Z,0.27
2022-12-11T04:58:59.846Z,0.30
2022-12-11T04:59:59.866Z,0.30
2022-12-11T05:00:59.843Z,0.28
2022-12-11T05:01:59.925Z,0.28
2022-12-11T05:02:59.939Z,0.28
2022-12-11T05:03:59.826Z,0.27
2022-12-11T05:04:59.798Z,0.28
2022-12-11T05:05:59.803Z,0.28
2022-12-11T05:06:59.766Z,0.24
2022-12-11T05:07:59.999Z,0.25
2022-12-11T05:08:59.749Z,0.24
2022-12-11T05:09:59.752Z,0.23
2022-12-11T05:10:59.715Z,0.21
2022-12-11T05:11:59.733Z,0.23
2022-12-11T05:12:59.714Z,0.24
2022-12-11T05:13:59.749Z,0.25
2022-12-11T05:14:59.680Z,0.24
2022-12-11T05:16:00.682Z,0.24
2022-12-11T05:16:59.663Z,0.25
2022-12-11T05:17:59.693Z,0.24
2022-12-11T05:18:59.635Z,0.23
2022-12-11T05:19:59.660Z,0.21
2022-12-11T05:20:59.620Z,0.23
2022-12-11T05:21:59.633Z,0.21
2022-12-11T05:22:59.623Z,0.21
2022-12-11T05:23:59.625Z,0.16
2022-12-11T05:24:59.571Z,0.18
2022-12-11T05:25:59.605Z,0.18
2022-12-11T05:26:59.553Z,0.20
2022-12-11T05:27:59.568Z,0.20
2022-12-11T05:28:59.578Z,0.18
2022-12-11T05:29:59.867Z,0.20
2022-12-11T05:30:59.569Z,0.20
2022-12-11T05:31:59.533Z,0.23
2022-12-11T05:32:59.483Z,0.23
2022-12-11T05:33:59.533Z,0.25
2022-12-11T05:34:59.461Z,0.24
2022-12-11T05:35:59.486Z,0.24
2022-12-11T05:36:59.465Z,0.24
2022-12-11T05:37:59.483Z,0.24
2022-12-11T05:38:59.444Z,0.24
2022-12-11T05:39:59.433Z,0.25
2022-12-11T05:40:59.411Z,0.25
2022-12-11T05:41:59.414Z,0.23
2022-12-11T05:42:59.385Z,0.21
2022-12-11T05:43:59.394Z,0.16
2022-12-11T05:44:59.382Z,0.16
2022-12-11T05:45:59.396Z,0.12
2022-12-11T05:46:59.437Z,0.12
2022-12-11T05:47:59.366Z,0.10
2022-12-11T05:48:59.318Z,0.10
2022-12-11T05:49:59.350Z,0.10
2022-12-11T05:50:59.318Z,0.10
2022-12-11T05:51:59.328Z,0.12
2022-12-11T05:52:59.267Z,0.15
2022-12-11T05:53:59.297Z,0.16
2022-12-11T05:54:59.265Z,0.16
2022-12-11T05:55:59.289Z,0.20
2022-12-11T05:56:59.239Z,0.20
2022-12-11T05:57:59.247Z,0.23
2022-12-11T05:58:59.219Z,0.23
2022-12-11T05:59:59.230Z,0.23
2022-12-11T06:01:00.157Z,0.23
2022-12-11T06:01:59.338Z,0.21
2022-12-11T06:02:59.404Z,0.23
2022-12-11T06:03:59.193Z,0.23
2022-12-11T06:04:59.170Z,0.23
2022-12-11T06:05:59.168Z,0.23
2022-12-11T06:06:59.121Z,0.24
2022-12-11T06:07:59.176Z,0.24
2022-12-11T06:08:59.123Z,0.23
2022-12-11T06:09:59.124Z,0.23
2022-12-11T06:10:59.091Z,0.24
2022-12-11T06:11:59.123Z,0.25
2022-12-11T06:12:59.070Z,0.25
2022-12-11T06:13:59.089Z,0.25
2022-12-11T06:14:59.045Z,0.25
2022-12-11T06:15:59.153Z,0.24
2022-12-11T06:16:59.028Z,0.23
2022-12-11T06:17:59.038Z,0.20
2022-12-11T06:18:59.005Z,0.16
2022-12-11T06:19:59.038Z,0.16
2022-12-11T06:20:59.003Z,0.13
2022-12-11T06:21:59.032Z,0.15
2022-12-11T06:22:58.961Z,0.16
2022-12-11T06:23:58.993Z,0.18
2022-12-11T06:24:58.950Z,0.18
2022-12-11T06:25:58.967Z,0.20
2022-12-11T06:26:58.929Z,0.23
2022-12-11T06:27:58.930Z,0.23
2022-12-11T06:28:58.904Z,0.23
2022-12-11T06:29:58.925Z,0.25
2022-12-11T06:30:58.877Z,0.27
2022-12-11T06:31:58.952Z,0.30
2022-12-11T06:32:58.857Z,0.30
2022-12-11T06:33:58.867Z,0.31
2022-12-11T06:34:58.856Z,0.33
2022-12-11T06:35:58.846Z,0.31
2022-12-11T06:36:58.841Z,0.34
2022-12-11T06:38:00.278Z,0.34
2022-12-11T06:38:58.808Z,0.31
2022-12-11T06:39:58.802Z,0.30
2022-12-11T06:40:58.779Z,0.31
2022-12-11T06:41:58.789Z,0.30
2022-12-11T06:42:58.750Z,0.30
2022-12-11T06:43:58.783Z,0.30
2022-12-11T06:44:58.730Z,0.31
2022-12-11T06:46:03.590Z,0.33
2022-12-11T06:46:59.729Z,0.33
2022-12-11T06:47:58.728Z,0.34
2022-12-11T06:48:58.723Z,0.38
2022-12-11T06:49:58.760Z,0.38
2022-12-11T06:50:58.713Z,0.41
2022-12-11T06:51:58.673Z,0.41
2022-12-11T06:52:58.649Z,0.41
2022-12-11T06:53:58.679Z,0.39
2022-12-11T06:54:58.625Z,0.39
2022-12-11T06:55:58.672Z,0.41
2022-12-11T06:56:58.615Z,0.39
2022-12-11T06:57:58.610Z,0.39
2022-12-11T06:59:02.857Z,0.38
2022-12-11T06:59:59.598Z,0.38
2022-12-11T07:00:58.632Z,0.38
2022-12-11T07:01:58.685Z,0.38
2022-12-11T07:02:58.541Z,0.34
2022-12-11T07:03:58.567Z,0.33
2022-12-11T07:04:58.518Z,0.31
2022-12-11T07:05:58.535Z,0.31
2022-12-11T07:06:58.502Z,0.31
2022-12-11T07:07:58.545Z,0.33
2022-12-11T07:08:58.472Z,0.30
2022-12-11T07:10:02.729Z,0.31
2022-12-11T07:10:59.457Z,0.30
2022-12-11T07:11:58.506Z,0.28
2022-12-11T07:12:58.427Z,0.28
2022-12-11T07:13:58.468Z,0.25
2022-12-11T07:14:58.410Z,0.25
2022-12-11T07:15:58.433Z,0.27
2022-12-11T07:16:58.387Z,0.27
2022-12-11T07:17:58.405Z,0.25
2022-12-11T07:18:58.397Z,0.25
2022-12-11T07:19:58.394Z,0.28
2022-12-11T07:20:58.346Z,0.28
2022-12-11T07:21:58.356Z,0.30
2022-12-11T07:22:58.318Z,0.30
2022-12-11T07:23:58.375Z,0.30
2022-12-11T07:24:58.316Z,0.30
2022-12-11T07:25:58.317Z,0.28
2022-12-11T07:26:58.307Z,0.30
2022-12-11T07:27:58.304Z,0.30
2022-12-11T07:28:58.260Z,0.30
2022-12-11T07:29:58.280Z,0.30
2022-12-11T07:30:58.283Z,0.33
2022-12-11T07:31:58.394Z,0.34
2022-12-11T07:32:58.242Z,0.36
2022-12-11T07:33:58.229Z,0.38
2022-12-11T07:34:58.190Z,0.38
2022-12-11T07:35:58.202Z,0.39
2022-12-11T07:36:58.181Z,0.36
2022-12-11T07:37:58.201Z,0.36
2022-12-11T07:38:58.145Z,0.34
2022-12-11T07:39:58.175Z,0.36
2022-12-11T07:40:58.130Z,0.38
2022-12-11T07:41:58.170Z,0.36
2022-12-11T07:42:58.112Z,0.38
2022-12-11T07:43:58.139Z,0.38
2022-12-11T07:44:58.097Z,0.34
2022-12-11T07:45:58.147Z,0.34
2022-12-11T07:46:58.067Z,0.36
2022-12-11T07:47:58.110Z,0.36
2022-12-11T07:48:58.072Z,0.36
2022-12-11T07:49:58.060Z,0.39
2022-12-11T07:50:58.021Z,0.38
2022-12-11T07:51:58.053Z,0.39
2022-12-11T07:52:58.033Z,0.38
2022-12-11T07:53:58.012Z,0.42
2022-12-11T07:54:57.990Z,0.45
2022-12-11T07:55:57.992Z,0.43
2022-12-11T07:56:57.962Z,0.46
2022-12-11T07:57:59.445Z,0.49
2022-12-11T07:58:57.948Z,0.49
2022-12-11T07:59:57.972Z,0.49
2022-12-11T08:00:57.985Z,0.51
2022-12-11T08:01:57.996Z,0.52
2022-12-11T08:02:57.915Z,0.52
2022-12-11T08:03:57.905Z,0.57
2022-12-11T08:04:57.876Z,0.57
2022-12-11T08:05:57.871Z,0.57
2022-12-11T08:06:57.876Z,0.57
2022-12-11T08:07:57.861Z,0.57
2022-12-11T08:08:57.880Z,0.58
2022-12-11T08:09:57.823Z,0.58
2022-12-11T08:10:57.858Z,0.58
2022-12-11T08:11:57.835Z,0.60
2022-12-11T08:12:57.820Z,0.60
2022-12-11T08:13:57.791Z,0.61
2022-12-11T08:14:57.797Z,0.62
2022-12-11T08:15:57.781Z,0.62
2022-12-11T08:16:57.825Z,0.60
2022-12-11T08:17:57.750Z,0.60
2022-12-11T08:18:57.773Z,0.58
2022-12-11T08:19:57.730Z,0.57
2022-12-11T08:20:57.737Z,0.53
2022-12-11T08:21:57.691Z,0.57
2022-12-11T08:22:59.355Z,0.57
2022-12-11T08:23:57.681Z,0.61
2022-12-11T08:24:57.685Z,0.62
2022-12-11T08:25:57.650Z,0.64
2022-12-11T08:26:57.693Z,0.65
2022-12-11T08:27:57.644Z,0.64
2022-12-11T08:28:57.672Z,0.64
2022-12-11T08:29:57.612Z,0.64
2022-12-11T08:30:57.721Z,0.65
2022-12-11T08:31:57.584Z,0.62
2022-12-11T08:32:57.612Z,0.62
2022-12-11T08:33:57.577Z,0.61
2022-12-11T08:34:57.584Z,0.64
2022-12-11T08:35:57.562Z,0.62
2022-12-11T08:36:57.563Z,0.64
2022-12-11T08:37:57.540Z,0.65
2022-12-11T08:38:57.538Z,0.65
2022-12-11T08:39:57.517Z,0.67
2022-12-11T08:40:57.524Z,0.67
2022-12-11T08:41:57.505Z,0.65
2022-12-11T08:42:57.512Z,0.68
2022-12-11T08:43:57.466Z,0.68
2022-12-11T08:44:57.483Z,0.70
2022-12-11T08:45:57.485Z,0.67
2022-12-11T08:46:57.464Z,0.67
2022-12-11T08:47:57.438Z,0.65
2022-12-11T08:48:57.449Z,0.65
2022-12-11T08:49:57.404Z,0.64
2022-12-11T08:50:57.408Z,0.64
2022-12-11T08:51:57.392Z,0.62
2022-12-11T08:52:57.408Z,0.64
2022-12-11T08:53:57.354Z,0.62
2022-12-11T08:54:57.378Z,0.64
2022-12-11T08:55:57.330Z,0.67
2022-12-11T08:56:58.330Z,0.67
2022-12-11T08:57:57.325Z,0.67
2022-12-11T08:58:57.340Z,0.67
2022-12-11T08:59:57.309Z,0.68
2022-12-11T09:00:57.365Z,0.70
2022-12-11T09:01:57.276Z,0.70
2022-12-11T09:02:57.355Z,0.67
2022-12-11T09:03:57.273Z,0.65
2022-12-11T09:04:57.278Z,0.64
2022-12-11T09:05:57.240Z,0.62
2022-12-11T09:06:57.279Z,0.65
2022-12-11T09:07:57.245Z,0.65
2022-12-11T09:08:57.243Z,0.64
2022-12-11T09:09:57.193Z,0.64
2022-12-11T09:10:57.220Z,0.64
2022-12-11T09:11:57.162Z,0.64
2022-12-11T09:12:57.176Z,0.64
2022-12-11T09:13:58.928Z,0.67
2022-12-11T09:14:58.205Z,0.67
2022-12-11T09:15:57.229Z,0.67
2022-12-11T09:16:57.135Z,0.67
2022-12-11T09:17:57.112Z,0.64
2022-12-11T09:18:57.110Z,0.67
2022-12-11T09:19:57.088Z,0.67
2022-12-11T09:20:57.094Z,0.65
2022-12-11T09:21:57.095Z,0.67
2022-12-11T09:22:57.087Z,0.70
2022-12-11T09:23:57.049Z,0.72
2022-12-11T09:24:57.057Z,0.71
2022-12-11T09:25:57.017Z,0.78
2022-12-11T09:26:57.023Z,0.78
2022-12-11T09:27:57.031Z,0.78
2022-12-11T09:28:57.034Z,0.80
2022-12-11T09:29:56.964Z,0.82
2022-12-11T09:30:57.094Z,0.80
2022-12-11T09:31:56.955Z,0.82
2022-12-11T09:32:56.964Z,0.82
2022-12-11T09:33:56.958Z,0.80
2022-12-11T09:34:56.968Z,0.79
2022-12-11T09:35:56.935Z,0.80
2022-12-11T09:36:57.333Z,0.79
2022-12-11T09:37:56.911Z,0.79
2022-12-11T09:38:56.906Z,0.83
2022-12-11T09:39:56.856Z,0.83
2022-12-11T09:40:56.875Z,0.83
2022-12-11T09:41:56.889Z,0.83
2022-12-11T09:42:56.916Z,0.83
2022-12-11T09:43:56.875Z,0.82
2022-12-11T09:44:56.827Z,0.83
2022-12-11T09:45:56.832Z,0.83
2022-12-11T09:46:56.916Z,0.83
2022-12-11T09:47:56.777Z,0.85
2022-12-11T09:48:56.814Z,0.80
2022-12-11T09:49:56.754Z,0.80
2022-12-11T09:50:56.784Z,0.82
2022-12-11T09:51:56.741Z,0.80
2022-12-11T09:52:56.747Z,0.82
2022-12-11T09:53:56.730Z,0.80
2022-12-11T09:54:56.749Z,0.80
2022-12-11T09:55:56.710Z,0.80
2022-12-11T09:56:56.710Z,0.82
2022-12-11T09:57:56.681Z,0.80
2022-12-11T09:58:56.725Z,0.82
2022-12-11T10:00:02.761Z,0.85
2022-12-11T10:00:57.674Z,0.85
2022-12-11T10:01:56.682Z,0.86
2022-12-11T10:02:56.775Z,0.85
2022-12-11T10:03:56.633Z,0.88
2022-12-11T10:04:56.621Z,0.88
2022-12-11T10:06:01.145Z,0.88
2022-12-11T10:06:57.620Z,0.88
2022-12-11T10:07:56.679Z,0.90
2022-12-11T10:08:56.603Z,0.94
2022-12-11T10:09:56.548Z,0.94
2022-12-11T10:10:56.587Z,0.92
2022-12-11T10:11:57.115Z,0.92
2022-12-11T10:12:56.534Z,0.96
2022-12-11T10:13:56.523Z,0.92
2022-12-11T10:14:56.608Z,0.90
2022-12-11T10:15:56.648Z,0.90
2022-12-11T10:16:56.511Z,0.90
2022-12-11T10:18:01.301Z,0.92
2022-12-11T10:18:57.470Z,0.92
2022-12-11T10:19:56.816Z,0.90
2022-12-11T10:20:56.453Z,0.92
2022-12-11T10:21:57.398Z,0.92
2022-12-11T10:22:56.438Z,0.94
2022-12-11T10:23:56.424Z,0.94
2022-12-11T10:25:12.585Z,0.92
2022-12-11T10:25:57.458Z,0.90
2022-12-11T10:26:56.410Z,0.92
2022-12-11T10:27:56.361Z,0.88
2022-12-11T10:28:56.362Z,0.88
2022-12-11T10:29:56.363Z,0.88
2022-12-11T10:30:56.402Z,0.88
2022-12-11T10:31:56.322Z,0.90
2022-12-11T10:32:56.322Z,0.94
2022-12-11T10:33:56.288Z,0.97
2022-12-11T10:34:56.338Z,0.98
2022-12-11T10:35:56.289Z,1.08
2022-12-11T10:37:00.435Z,1.19
2022-12-11T10:37:56.333Z,1.33
2022-12-11T10:38:56.274Z,1.36
2022-12-11T10:39:56.242Z,1.37
2022-12-11T10:40:56.278Z,1.37
2022-12-11T10:41:56.200Z,1.39
2022-12-11T10:42:56.222Z,1.39
2022-12-11T10:43:56.201Z,1.37
2022-12-11T10:44:56.211Z,1.33
2022-12-11T10:45:56.252Z,1.32
2022-12-11T10:46:56.184Z,1.28
2022-12-11T10:47:56.132Z,1.26
2022-12-11T10:48:56.182Z,1.24
2022-12-11T10:49:56.128Z,1.19
2022-12-11T10:50:56.132Z,1.16
2022-12-11T10:51:56.098Z,1.15
2022-12-11T10:52:56.115Z,1.14
2022-12-11T10:53:56.082Z,1.10
2022-12-11T10:54:56.100Z,1.08
2022-12-11T10:55:56.143Z,1.07
2022-12-11T10:56:56.069Z,1.16
2022-12-11T10:57:56.056Z,1.21
2022-12-11T10:58:56.050Z,1.24
2022-12-11T10:59:56.035Z,1.24
2022-12-11T11:00:56.054Z,1.24
2022-12-11T11:01:56.044Z,1.22
2022-12-11T11:02:56.072Z,1.21
2022-12-11T11:03:55.970Z,1.18
2022-12-11T11:04:55.992Z,1.19
2022-12-11T11:05:56.031Z,1.16
2022-12-11T11:06:55.995Z,1.16
2022-12-11T11:07:55.976Z,1.16
2022-12-11T11:08:55.949Z,1.16
2022-12-11T11:09:55.917Z,1.19
2022-12-11T11:10:55.915Z,1.18
2022-12-11T11:11:55.883Z,1.16
2022-12-11T11:12:55.902Z,1.16
2022-12-11T11:13:55.869Z,1.15
2022-12-11T11:14:55.896Z,1.12
2022-12-11T11:15:55.953Z,1.10
2022-12-11T11:16:55.872Z,1.10
2022-12-11T11:17:56.313Z,1.07
2022-12-11T11:18:55.830Z,1.06
2022-12-11T11:19:55.802Z,1.07
2022-12-11T11:20:55.826Z,1.07
2022-12-11T11:21:55.801Z,1.07
2022-12-11T11:22:55.814Z,1.08
2022-12-11T11:23:55.750Z,1.07
2022-12-11T11:24:55.770Z,1.07
2022-12-11T11:25:55.872Z,1.06
2022-12-11T11:27:12.733Z,1.06
2022-12-11T11:27:56.729Z,1.03
2022-12-11T11:28:55.734Z,1.03
2022-12-11T11:29:55.728Z,1.04
2022-12-11T11:30:55.764Z,1.04
2022-12-11T11:31:55.671Z,1.06
2022-12-11T11:32:55.696Z,1.08
2022-12-11T11:33:55.671Z,1.08
2022-12-11T11:34:55.662Z,1.12
2022-12-11T11:35:55.644Z,1.10
2022-12-11T11:36:55.651Z,1.10
2022-12-11T11:37:55.622Z,1.12
2022-12-11T11:38:55.636Z,1.10
2022-12-11T11:39:55.601Z,1.10
2022-12-11T11:41:00.792Z,1.08
2022-12-11T11:41:56.563Z,1.07
2022-12-11T11:42:55.584Z,1.07
2022-12-11T11:43:55.568Z,1.04
2022-12-11T11:44:55.563Z,1.01
2022-12-11T11:45:55.526Z,0.98
2022-12-11T11:46:55.657Z,0.96
2022-12-11T11:47:55.515Z,0.97
2022-12-11T11:48:55.526Z,0.97
2022-12-11T11:49:55.477Z,1.00
2022-12-11T11:50:55.506Z,1.01
2022-12-11T11:51:55.475Z,1.03
2022-12-11T11:52:55.484Z,1.03
2022-12-11T11:53:55.444Z,1.03
2022-12-11T11:54:55.460Z,1.06
2022-12-11T11:55:55.452Z,1.06
2022-12-11T11:56:55.432Z,1.08
2022-12-11T11:57:55.400Z,1.10
2022-12-11T11:58:55.411Z,1.12
2022-12-11T11:59:55.390Z,1.14
2022-12-11T12:00:55.407Z,1.14
2022-12-11T12:01:55.357Z,1.16
2022-12-11T12:02:55.450Z,1.10
2022-12-11T12:03:55.328Z,1.07
2022-12-11T12:04:55.350Z,1.06
2022-12-11T12:05:55.353Z,1.04
2022-12-11T12:06:55.383Z,1.06
2022-12-11T12:07:55.350Z,1.04
2022-12-11T12:08:55.300Z,1.04
2022-12-11T12:09:55.311Z,1.07
2022-12-11T12:10:55.291Z,1.08
2022-12-11T12:11:55.262Z,1.08
2022-12-11T12:12:55.274Z,1.12
2022-12-11T12:13:55.244Z,1.14
2022-12-11T12:14:55.240Z,1.12
2022-12-11T12:15:55.220Z,1.15
2022-12-11T12:16:55.243Z,1.15
2022-12-11T12:17:56.291Z,1.14
2022-12-11T12:18:55.226Z,1.16
2022-12-11T12:19:55.187Z,1.16
2022-12-11T12:20:55.174Z,1.16
2022-12-11T12:21:55.182Z,1.18
2022-12-11T12:22:55.144Z,1.15
2022-12-11T12:23:55.131Z,1.18
2022-12-11T12:24:55.139Z,1.14
2022-12-11T12:25:55.119Z,1.14
2022-12-11T12:26:55.080Z,1.16
2022-12-11T12:27:55.100Z,1.18
2022-12-11T12:28:55.106Z,1.16
2022-12-11T12:29:55.092Z,1.16
2022-12-11T12:30:55.065Z,1.15
2022-12-11T12:31:55.125Z,1.18
2022-12-11T12:32:55.067Z,1.19
2022-12-11T12:33:55.035Z,1.22
2022-12-11T12:34:54.996Z,1.22
2022-12-11T12:35:55.021Z,1.24
2022-12-11T12:36:54.987Z,1.25
2022-12-11T12:37:54.995Z,1.25
2022-12-11T12:38:54.955Z,1.24
2022-12-11T12:39:55.004Z,1.24
2022-12-11T12:40:55.012Z,1.25
2022-12-11T12:41:54.947Z,1.25
2022-12-11T12:42:54.938Z,1.26
2022-12-11T12:43:54.991Z,1.25
2022-12-11T12:44:54.911Z,1.26
2022-12-11T12:45:54.960Z,1.26
2022-12-11T12:46:54.874Z,1.26
2022-12-11T12:47:54.889Z,1.26
2022-12-11T12:48:54.849Z,1.26
2022-12-11T12:49:54.906Z,1.25
2022-12-11T12:50:54.833Z,1.24
2022-12-11T12:51:54.854Z,1.22
2022-12-11T12:52:54.817Z,1.22
2022-12-11T12:53:54.828Z,1.19
2022-12-11T12:54:54.799Z,1.19
2022-12-11T12:55:54.800Z,1.18
2022-12-11T12:56:55.311Z,1.19
2022-12-11T12:57:54.779Z,1.19
2022-12-11T12:58:54.755Z,1.18
2022-12-11T12:59:54.754Z,1.19
2022-12-11T13:00:54.749Z,1.16
2022-12-11T13:01:54.778Z,1.15
2022-12-11T13:02:54.702Z,1.15
2022-12-11T13:03:54.731Z,1.12
2022-12-11T13:04:56.320Z,1.08
2022-12-11T13:05:54.702Z,1.07
2022-12-11T13:06:54.655Z,1.04
2022-12-11T13:07:54.828Z,1.04
2022-12-11T13:08:54.640Z,1.06
2022-12-11T13:09:54.661Z,1.07
2022-12-11T13:10:54.642Z,1.04
2022-12-11T13:11:54.621Z,1.03